Terminal Aerodrome Forecast
Issued by NWS Riverton, WY

Home | Current Version | Previous Version | Text Only | Print | Product List | Glossary On
Versions: 1 2 3 4 5 6 7 8 9 10 11 12 13 14 15 16 17 18 19 20 21
483
FTUS45 KRIW 240532
TAFRIW
TAF
KRIW 240532Z 2406/2506 04006KT P6SM -RA SCT015 OVC040
     FM241000 04012KT 6SM -SNRA SCT003 BKN007
     FM241600 03010G15KT 6SM -RASN OVC005
     FM242300 04006KT 5SM -RASN OVC005
     FM250500 36006KT 5SM -RASN OVC005=

USA.gov is the U.S. government's official web portal to all federal, state and local government web resources and services.